Time;durP1;ratioP1;P1;durP2;ratioP2;P2;SDS_P1;SDS_P2;PMS_P1;PMS_P2;Temp;Humidity;BMP_temperature;BMP_pressure;BME280_temperature;BME280_humidity;BME280_pressure;Samples;Min_cycle;Max_cycle;Signal;HPM_P1;HPM_P2
2022/12/31 00:01:14;;;;;;;16.08;5.78;;;13.50;99.90;;;13.72;100.00;100112.44;5096415;28;19931;-62
2022/12/31 00:03:43;;;;;;;18.48;5.80;;;13.50;99.90;;;13.72;100.00;100103.59;5096401;28;20036;-62
2022/12/31 00:06:19;;;;;;;23.55;5.50;;;13.60;99.90;;;13.68;100.00;100110.78;5095952;28;20127;-62
2022/12/31 00:08:48;;;;;;;16.25;5.60;;;13.50;99.90;;;13.60;100.00;100083.56;5096205;28;20058;-62
2022/12/31 00:11:17;;;;;;;14.27;5.43;;;13.50;99.90;;;13.72;100.00;100098.28;5096130;28;20130;-63
2022/12/31 00:13:46;;;;;;;21.27;6.20;;;13.50;99.90;;;13.74;100.00;100110.59;5096529;28;20040;-62
2022/12/31 00:16:20;;;;;;;16.85;5.18;;;13.50;99.90;;;13.67;100.00;100106.38;5096353;28;20040;-62
2022/12/31 00:18:50;;;;;;;16.77;5.93;;;13.40;99.90;;;12.28;100.00;99881.16;5096399;28;20036;-62
2022/12/31 00:21:20;;;;;;;;;;;13.40;99.90;;;13.65;100.00;100109.97;5078672;28;20052;-62
2022/12/31 00:23:49;;;;;;;17.05;5.60;;;13.40;99.90;;;13.67;100.00;100116.13;5095910;28;19920;-63
2022/12/31 00:26:21;;;;;;;13.45;5.13;;;13.40;99.90;;;13.67;100.00;100118.78;5095899;28;20036;-62
2022/12/31 00:28:49;;;;;;;13.75;5.65;;;13.40;99.90;;;13.50;100.00;100068.78;5077621;28;20044;-62
2022/12/31 00:31:21;;;;;;;20.73;5.82;;;13.50;99.90;;;13.56;100.00;100098.72;5095791;28;20130;-63
2022/12/31 00:33:50;;;;;;;17.35;5.28;;;13.40;99.90;;;13.53;100.00;100098.78;5095726;28;20074;-62
2022/12/31 00:36:21;;;;;;;16.23;5.18;;;13.40;99.90;;;13.62;100.00;100118.94;5095718;28;20555;-62
2022/12/31 00:38:52;;;;;;;17.85;5.60;;;13.40;99.90;;;13.66;100.00;100103.75;5096211;28;20484;-62
2022/12/31 00:41:22;;;;;;;12.82;5.40;;;13.40;99.90;;;13.64;100.00;100097.63;5096477;28;20078;-62
2022/12/31 00:43:50;;;;;;;21.85;5.43;;;13.40;99.90;;;13.66;100.00;100101.09;5095497;28;20501;-62
2022/12/31 00:46:21;;;;;;;21.42;5.45;;;13.40;99.90;;;13.65;100.00;100108.19;5095836;28;20066;-63
2022/12/31 00:48:50;;;;;;;16.10;5.63;;;13.40;99.90;;;13.60;100.00;100096.84;5095697;28;20044;-62
2022/12/31 00:51:23;;;;;;;15.65;5.20;;;13.30;99.90;;;13.49;100.00;100075.88;5095459;28;20465;-62
2022/12/31 00:53:51;;;;;;;15.52;4.97;;;13.40;99.90;;;13.69;100.00;100090.38;5077550;28;20067;-62
2022/12/31 00:56:23;;;;;;;12.05;5.40;;;13.40;99.90;;;13.70;100.00;100100.09;5095556;28;20055;-62
2022/12/31 00:58:52;;;;;;;15.90;4.60;;;13.40;99.90;;;13.61;100.00;100097.72;5095295;28;20101;-62
2022/12/31 01:01:25;;;;;;;12.23;4.47;;;13.40;99.90;;;13.58;100.00;100091.59;5077508;28;20170;-63
2022/12/31 01:03:57;;;;;;;12.23;4.88;;;13.40;99.90;;;13.50;100.00;100071.44;5095627;28;20040;-62
2022/12/31 01:06:26;;;;;;;13.45;5.00;;;13.40;99.90;;;13.61;100.00;100098.56;5094493;28;20056;-62
2022/12/31 01:08:55;;;;;;;14.45;5.32;;;13.40;99.90;;;13.46;100.00;100065.34;5077172;28;20048;-62
2022/12/31 01:11:27;;;;;;;11.40;4.60;;;13.40;99.90;;;13.62;100.00;100083.50;5095214;28;20040;-62
2022/12/31 01:13:59;;;;;;;12.15;4.82;;;13.40;99.90;;;13.57;100.00;100087.16;5095330;28;20043;-63
2022/12/31 01:16:32;;;;;;;11.77;5.05;;;13.30;99.90;;;13.63;100.00;100085.25;5094852;28;20481;-62
2022/12/31 01:19:04;;;;;;;12.13;4.43;;;13.40;99.90;;;13.64;100.00;100094.97;5095050;28;20044;-62
2022/12/31 01:21:34;;;;;;;11.65;4.95;;;13.40;99.90;;;13.48;100.00;100058.22;5094888;28;20439;-62
2022/12/31 01:24:03;;;;;;;7.25;4.07;;;13.40;99.90;;;13.62;100.00;100096.78;5094786;28;20032;-62
2022/12/31 01:26:31;;;;;;;10.23;4.55;;;13.40;99.90;;;13.58;100.00;100098.66;5095213;28;20131;-62
2022/12/31 01:29:00;;;;;;;14.50;5.55;;;13.30;99.90;;;13.56;100.00;100090.75;5094107;28;20044;-62
2022/12/31 01:31:30;;;;;;;13.45;4.90;;;13.30;99.90;;;13.49;100.00;100077.69;5094450;28;20044;-62
2022/12/31 01:33:58;;;;;;;10.93;5.15;;;13.30;99.90;;;13.48;100.00;100092.75;5094151;28;20059;-62
2022/12/31 01:36:30;;;;;;;11.82;4.35;;;13.20;99.90;;;13.15;100.00;100037.06;5094139;28;20078;-62
2022/12/31 01:39:01;;;;;;;11.63;4.43;;;13.20;99.90;;;13.42;100.00;100094.69;5094456;28;20044;-63
2022/12/31 01:41:32;;;;;;;13.93;5.03;;;13.10;99.90;;;13.30;100.00;100077.31;5094158;28;20064;-62
2022/12/31 01:44:23;;;;;;;12.02;4.40;;;13.10;99.90;;;13.24;100.00;100090.78;5093937;28;20040;-62
2022/12/31 01:46:54;;;;;;;;;;;13.10;99.90;;;13.33;100.00;100071.06;5094513;28;20466;-62
2022/12/31 01:49:24;;;;;;;;;;;13.10;99.90;;;13.36;100.00;100078.94;5094310;28;20293;-62
2022/12/31 01:52:00;;;;;;;10.38;4.43;;;13.10;99.90;;;13.36;100.00;100079.81;5094124;28;19920;-62
2022/12/31 01:54:33;;;;;;;14.35;4.80;;;13.10;99.90;;;13.33;100.00;100068.41;5093909;28;20402;-62
2022/12/31 01:57:02;;;;;;;15.27;4.93;;;13.10;99.90;;;13.22;100.00;100067.84;5093689;28;20131;-62
2022/12/31 01:59:33;;;;;;;12.95;4.80;;;13.00;99.90;;;13.34;100.00;100059.50;5093897;28;20047;-62
2022/12/31 02:02:03;;;;;;;14.23;5.07;;;13.00;99.90;;;13.23;100.00;100080.19;5093632;28;20052;-62
2022/12/31 02:04:32;;;;;;;13.07;4.85;;;13.00;99.90;;;13.09;100.00;100109.78;5093617;28;20043;-62
2022/12/31 02:07:04;;;;;;;12.35;4.95;;;12.90;99.90;;;13.14;100.00;100115.81;5093319;28;20099;-62
2022/12/31 02:09:37;;;;;;;15.23;5.10;;;12.90;99.90;;;13.10;100.00;100103.59;5092128;28;20073;-62
2022/12/31 02:12:06;;;;;;;13.50;4.75;;;12.80;99.90;;;13.16;100.00;100111.34;5093494;28;20101;-62
2022/12/31 02:14:38;;;;;;;12.55;4.60;;;12.90;99.90;;;12.86;100.00;100077.63;5093331;28;20098;-62
2022/12/31 02:17:19;;;;;;;14.60;4.90;;;12.90;99.90;;;13.22;100.00;100142.22;5093522;28;20386;-63
2022/12/31 02:20:24;;;;;;;11.00;4.07;;;12.90;99.90;;;13.15;100.00;100149.47;5093866;28;20075;-63
2022/12/31 02:23:16;;;;;;;17.40;4.88;;;12.90;99.90;;;12.93;100.00;100099.59;5093361;28;20044;-62
2022/12/31 02:26:36;;;;;;;19.38;4.68;;;12.90;99.90;;;13.09;100.00;100132.81;5093182;28;20215;-62
2022/12/31 02:30:04;;;;;;;8.85;4.60;;;12.80;99.90;;;13.15;100.00;100130.00;5011093;28;20046;-62
2022/12/31 02:32:52;;;;;;;11.25;4.68;;;12.80;99.90;;;13.20;100.00;100123.63;5093129;28;20087;-62
2022/12/31 02:35:25;;;;;;;16.75;4.78;;;12.90;99.90;;;12.97;100.00;100093.28;5093074;28;20040;-62
2022/12/31 02:38:03;;;;;;;12.77;4.70;;;12.90;99.90;;;13.12;100.00;100132.75;5093054;28;20048;-63
2022/12/31 02:40:35;;;;;;;10.75;4.43;;;12.80;99.90;;;13.17;100.00;100133.47;5093069;28;20075;-62
2022/12/31 02:43:04;;;;;;;12.43;4.88;;;12.90;99.90;;;13.11;100.00;100139.81;5092980;28;20093;-62
2022/12/31 02:45:38;;;;;;;10.48;4.50;;;12.90;99.90;;;13.13;100.00;100145.97;5092686;28;20044;-62
2022/12/31 02:48:33;;;;;;;10.98;4.47;;;12.80;99.90;;;12.94;100.00;100131.41;5092720;28;20044;-62
2022/12/31 02:51:21;;;;;;;13.50;4.60;;;12.80;99.90;;;12.99;100.00;100147.22;5092720;28;20524;-62
2022/12/31 02:54:15;;;;;;;8.60;4.32;;;12.70;99.90;;;12.93;100.00;100144.72;5092950;28;20119;-62
2022/12/31 02:56:56;;;;;;;12.27;4.90;;;12.70;99.90;;;12.89;100.00;100154.50;5092546;28;20047;-62
2022/12/31 03:02:21;;;;;;;8.68;4.68;;;12.60;99.90;;;12.86;100.00;100154.59;5092540;28;20105;-62
2022/12/31 03:04:54;;;;;;;8.10;3.90;;;12.60;99.90;;;12.80;100.00;100140.59;5075134;28;20135;-62
2022/12/31 03:07:25;;;;;;;8.13;4.20;;;12.60;99.90;;;12.88;100.00;100141.28;5092896;28;20125;-63
2022/12/31 03:09:54;;;;;;;12.45;4.32;;;12.60;99.90;;;12.82;100.00;100152.06;5093176;28;20036;-68
2022/12/31 03:15:22;;;;;;;9.93;4.10;;;12.60;99.90;;;12.92;100.00;100150.91;5093483;28;20138;-67
2022/12/31 03:17:56;;;;;;;8.68;4.32;;;12.60;99.90;;;12.81;100.00;100134.41;5092329;28;20109;-67
2022/12/31 03:23:23;;;;;;;12.55;4.13;;;12.50;99.90;;;12.93;100.00;100131.44;5093342;28;20097;-65
2022/12/31 03:25:52;;;;;;;9.93;4.40;;;12.60;99.90;;;12.88;100.00;100128.91;5075635;28;20052;-65
2022/12/31 03:28:24;;;;;;;10.35;4.53;;;12.60;99.90;;;12.73;100.00;100080.66;5075063;28;20168;-65
2022/12/31 03:30:56;;;;;;;9.75;4.55;;;12.60;99.90;;;12.92;100.00;100106.69;5093399;28;20052;-65
2022/12/31 03:33:26;;;;;;;7.72;3.92;;;12.60;99.90;;;12.96;100.00;100126.03;5093162;28;20078;-65
2022/12/31 03:35:55;;;;;;;7.53;4.05;;;12.70;99.90;;;13.03;100.00;100115.25;5092994;28;20040;-65
2022/12/31 03:38:23;;;;;;;8.95;3.92;;;12.70;99.90;;;12.98;100.00;100106.53;5075200;28;20048;-65
2022/12/31 03:40:54;;;;;;;10.18;4.15;;;12.70;99.90;;;13.07;100.00;100105.41;5075169;28;20079;-65
2022/12/31 03:43:22;;;;;;;11.25;4.95;;;12.80;99.90;;;13.13;100.00;100092.88;5092969;28;20529;-65
2022/12/31 03:45:52;;;;;;;10.13;4.63;;;12.90;99.90;;;13.04;100.00;100071.88;5092925;28;20076;-64
2022/12/31 03:48:22;;;;;;;9.65;5.03;;;12.90;99.90;;;13.18;100.00;100090.09;5093073;28;20054;-64
2022/12/31 03:50:52;;;;;;;13.73;5.10;;;12.90;99.90;;;13.04;100.00;100063.03;5075337;28;20501;-64
2022/12/31 03:53:21;;;;;;;8.05;4.45;;;13.00;99.90;;;13.29;100.00;100109.25;5093132;28;20464;-64
2022/12/31 03:55:51;;;;;;;10.90;5.18;;;13.00;99.90;;;13.27;100.00;100111.94;5074973;28;20048;-64
2022/12/31 03:58:21;;;;;;;11.48;5.60;;;13.00;99.90;;;13.21;100.00;100106.81;5091925;28;20476;-64
2022/12/31 04:00:49;;;;;;;12.43;5.85;;;13.00;99.90;;;13.11;100.00;100081.41;5092858;28;20036;-65
2022/12/31 04:03:18;;;;;;;11.43;5.80;;;13.00;99.90;;;13.29;100.00;100115.44;5093380;28;20044;-65
2022/12/31 04:05:54;;;;;;;13.27;6.38;;;13.10;99.90;;;13.18;100.00;100104.22;5074874;28;20135;-64
2022/12/31 04:08:22;;;;;;;12.55;6.60;;;13.00;99.90;;;13.32;100.00;100133.94;5092805;28;20040;-64
2022/12/31 04:10:51;;;;;;;13.52;6.28;;;13.10;99.90;;;13.37;100.00;100126.72;5092775;28;20440;-64
2022/12/31 04:13:19;;;;;;;11.50;6.25;;;13.10;99.90;;;13.34;100.00;100128.56;5074842;28;20497;-66
2022/12/31 04:15:50;;;;;;;9.00;6.40;;;13.10;99.90;;;13.37;100.00;100123.19;5092897;28;20036;-65
2022/12/31 04:18:19;;;;;;;8.18;6.30;;;13.10;99.90;;;13.38;100.00;100114.28;5092971;28;20044;-65
2022/12/31 04:20:47;;;;;;;7.18;6.07;;;13.10;99.90;;;13.36;100.00;100111.69;5092885;28;20474;-66
2022/12/31 04:23:17;;;;;;;9.85;6.63;;;13.10;99.90;;;13.39;100.00;100103.63;5092692;28;20044;-66
2022/12/31 04:25:45;;;;;;;7.83;6.83;;;13.20;99.90;;;13.35;100.00;100117.06;5091632;28;20485;-66
2022/12/31 04:28:13;;;;;;;7.38;6.68;;;13.10;99.90;;;13.24;100.00;100114.69;5092608;28;20119;-66
2022/12/31 04:30:43;;;;;;;7.55;6.82;;;13.00;99.90;;;13.33;100.00;100109.13;5091558;28;20055;-66
2022/12/31 04:33:12;;;;;;;7.60;6.80;;;13.10;99.90;;;13.36;100.00;100103.72;5092791;28;20431;-65
2022/12/31 04:35:40;;;;;;;7.93;7.22;;;13.10;99.90;;;13.38;100.00;100109.88;5092570;28;20119;-65
2022/12/31 04:38:08;;;;;;;7.60;7.00;;;13.10;99.90;;;13.41;100.00;100104.44;5074563;28;20473;-66
2022/12/31 04:41:15;;;;;;;8.57;7.68;;;13.10;99.90;;;13.26;100.00;100096.91;5094481;28;20123;-66
2022/12/31 04:43:27;;;;;;;9.88;8.88;;;13.10;99.90;;;13.39;100.00;100102.78;5096038;28;20469;-65
2022/12/31 04:45:55;;;;;;;10.40;9.27;;;13.10;99.90;;;13.36;100.00;100102.84;5096004;28;20044;-65
2022/12/31 04:48:24;;;;;;;11.57;10.43;;;13.10;99.90;;;13.36;100.00;100094.88;5094919;28;20054;-66
2022/12/31 04:50:52;;;;;;;12.98;11.70;;;13.10;99.90;;;13.34;100.00;100116.16;5096212;28;20040;-66
2022/12/31 04:53:21;;;;;;;14.38;11.68;;;13.10;99.90;;;13.34;100.00;100107.31;5095860;28;20044;-66
2022/12/31 04:55:50;;;;;;;12.82;11.40;;;13.10;99.90;;;13.25;100.00;100105.81;5096168;28;20052;-66
2022/12/31 04:58:19;;;;;;;11.57;10.57;;;13.00;99.90;;;13.31;100.00;100108.31;5096003;28;20048;-66
2022/12/31 05:00:50;;;;;;;10.25;9.25;;;13.10;99.90;;;13.30;100.00;100111.84;5078107;28;20033;-67
2022/12/31 05:03:19;;;;;;;8.63;7.82;;;13.00;99.90;;;13.21;100.00;100109.47;5095724;28;20048;-66
2022/12/31 05:05:48;;;;;;;8.02;7.28;;;13.00;99.90;;;13.25;100.00;100102.28;5077753;28;20089;-66
2022/12/31 05:08:18;;;;;;;7.03;6.47;;;13.10;99.90;;;13.29;100.00;100106.59;5095837;28;20390;-66
2022/12/31 05:10:50;;;;;;;6.60;6.00;;;13.10;99.90;;;13.35;100.00;100109.09;5095528;28;20048;-66
2022/12/31 05:13:18;;;;;;;6.68;6.18;;;13.10;99.90;;;13.38;100.00;100103.66;5095743;28;20067;-66
2022/12/31 05:15:47;;;;;;;6.00;5.50;;;13.10;99.90;;;13.30;100.00;100103.88;5095408;28;20122;-66
2022/12/31 05:18:17;;;;;;;6.25;5.75;;;13.10;99.90;;;13.35;100.00;100109.97;5095317;28;20047;-66
2022/12/31 05:20:45;;;;;;;5.90;5.50;;;13.10;99.90;;;13.37;100.00;100104.59;5095633;28;20050;-66
2022/12/31 05:23:14;;;;;;;6.05;5.55;;;13.10;99.90;;;13.42;100.00;100100.00;5095857;28;20039;-66
2022/12/31 05:25:45;;;;;;;6.05;5.60;;;13.20;99.90;;;13.42;100.00;100098.25;5095277;28;20127;-67
2022/12/31 05:28:16;;;;;;;5.82;5.43;;;13.20;99.90;;;13.40;100.00;100099.19;5095843;28;20436;-66
2022/12/31 05:30:47;;;;;;;5.35;4.95;;;13.20;99.90;;;13.40;100.00;100097.41;5095282;28;20098;-66
2022/12/31 05:33:16;;;;;;;4.53;4.22;;;13.20;99.90;;;13.20;100.00;100062.56;5095401;28;20123;-66
2022/12/31 05:35:45;;;;;;;5.95;5.40;;;13.20;99.90;;;13.39;100.00;100095.66;5095586;28;20040;-66
2022/12/31 05:38:13;;;;;;;5.28;4.88;;;13.20;99.90;;;13.45;100.00;100103.44;5095204;28;20040;-66
2022/12/31 05:40:41;;;;;;;5.50;5.07;;;13.20;99.90;;;13.42;100.00;100095.59;5094995;28;20043;-66
2022/12/31 05:43:10;;;;;;;5.22;4.82;;;13.20;99.90;;;13.37;100.00;100092.19;5095167;28;20051;-66
2022/12/31 05:45:40;;;;;;;5.00;4.63;;;13.10;99.90;;;13.41;100.00;100103.59;5094858;28;20055;-66
2022/12/31 05:48:08;;;;;;;4.90;4.60;;;13.20;99.90;;;13.45;100.00;100099.94;5095305;28;20048;-66
2022/12/31 05:50:36;;;;;;;5.43;5.03;;;13.20;99.90;;;13.53;100.00;100105.88;5094302;28;20032;-66
2022/12/31 05:53:05;;;;;;;4.80;4.50;;;13.20;99.90;;;13.52;100.00;100099.72;5094683;28;20032;-66
2022/12/31 05:55:33;;;;;;;4.70;4.35;;;13.30;99.90;;;13.56;100.00;100106.69;5094675;28;20067;-66
2022/12/31 05:58:01;;;;;;;4.97;4.60;;;13.30;99.90;;;13.54;100.00;100095.25;5094808;28;20040;-66
2022/12/31 06:00:29;;;;;;;4.68;4.28;;;13.30;99.90;;;13.56;100.00;100095.19;5094788;28;20375;-66
2022/12/31 06:02:59;;;;;;;4.18;3.88;;;13.30;99.90;;;13.64;100.00;100098.50;5094503;28;20436;-66
2022/12/31 06:05:28;;;;;;;4.53;4.17;;;13.40;99.90;;;13.64;100.00;100101.16;5094491;28;20047;-66
2022/12/31 06:07:56;;;;;;;5.07;4.68;;;13.40;99.90;;;13.66;100.00;100114.38;5094787;28;20282;-66
2022/12/31 06:10:24;;;;;;;5.72;4.70;;;13.40;99.90;;;13.70;100.00;100111.63;5094367;28;20554;-66
2022/12/31 06:12:53;;;;;;;4.85;4.55;;;13.40;99.90;;;13.66;100.00;100104.63;5094334;28;20039;-66
2022/12/31 06:15:21;;;;;;;4.93;4.53;;;13.50;99.90;;;13.65;100.00;100120.59;5094314;28;20042;-66
2022/12/31 06:17:49;;;;;;;4.70;4.22;;;13.40;99.90;;;13.68;100.00;100112.56;5094599;28;20032;-66
2022/12/31 06:20:19;;;;;;;4.75;4.45;;;13.40;99.90;;;13.71;100.00;100112.47;5075883;28;20059;-66
2022/12/31 06:22:48;;;;;;;4.97;4.63;;;13.50;99.90;;;13.70;100.00;100113.38;5094477;28;20062;-66
2022/12/31 06:25:16;;;;;;;5.30;4.90;;;13.50;99.90;;;13.76;100.00;100115.88;5094417;28;20105;-66
2022/12/31 06:27:44;;;;;;;5.38;4.97;;;13.50;99.90;;;13.79;100.00;100113.09;5094057;28;20097;-66
2022/12/31 06:30:14;;;;;;;5.45;5.05;;;13.50;99.90;;;13.76;100.00;100103.47;5094261;28;20451;-66
2022/12/31 06:32:42;;;;;;;4.70;4.40;;;13.50;99.90;;;13.78;100.00;100130.00;5093016;28;20500;-66
2022/12/31 06:35:10;;;;;;;5.30;4.70;;;13.60;99.90;;;13.86;100.00;100115.53;5093921;28;20044;-66
2022/12/31 06:37:40;;;;;;;5.45;5.05;;;13.60;99.90;;;13.80;100.00;100118.38;5094291;28;20066;-66
2022/12/31 06:40:11;;;;;;;5.65;4.78;;;13.60;99.90;;;13.90;100.00;100121.66;5093840;28;20040;-66
2022/12/31 06:42:41;;;;;;;4.68;4.25;;;13.70;99.90;;;13.93;100.00;100117.13;5075887;28;20134;-66
2022/12/31 06:45:10;;;;;;;5.15;4.65;;;13.70;99.90;;;13.96;100.00;100114.34;5094055;28;20063;-66
2022/12/31 06:47:38;;;;;;;4.50;4.10;;;13.70;99.90;;;13.94;100.00;100115.31;5075742;28;20142;-66
2022/12/31 06:50:08;;;;;;;4.65;3.97;;;13.70;99.90;;;13.92;100.00;100128.66;5093924;28;20048;-66
2022/12/31 06:52:37;;;;;;;5.30;4.50;;;13.70;99.90;;;14.02;100.00;100115.94;5093647;28;20122;-66
2022/12/31 06:55:09;;;;;;;4.88;3.70;;;13.80;99.90;;;14.05;100.00;100131.81;5093842;28;20621;-66
2022/12/31 06:57:38;;;;;;;6.63;3.80;;;13.80;99.90;;;14.07;100.00;100135.31;5093512;28;20126;-66
2022/12/31 07:00:10;;;;;;;4.78;3.53;;;13.80;99.90;;;14.09;100.00;100139.66;5075529;28;20130;-66
2022/12/31 07:03:10;;;;;;;4.13;3.72;;;13.90;99.90;;;14.15;100.00;100131.47;5074584;28;20150;-66
2022/12/31 07:05:45;;;;;;;3.90;3.20;;;13.90;99.90;;;14.17;100.00;100134.09;5093487;28;20131;-66
2022/12/31 07:08:33;;;;;;;4.55;3.45;;;14.00;99.90;;;14.15;100.00;100136.81;5094107;28;20052;-66
2022/12/31 07:11:12;;;;;;;3.70;3.22;;;14.00;99.90;;;14.19;100.00;100153.53;5093375;28;20044;-65
2022/12/31 07:13:59;;;;;;;3.42;3.22;;;14.00;99.90;;;14.24;100.00;100135.66;5093346;28;20465;-66
2022/12/31 07:16:49;;;;;;;3.60;3.33;;;14.00;99.90;;;14.21;100.00;100141.06;5093592;28;20043;-66
2022/12/31 07:19:31;;;;;;;4.22;3.25;;;14.00;99.90;;;14.22;100.00;100153.44;5093137;28;20044;-69
2022/12/31 07:22:00;;;;;;;4.03;3.38;;;14.00;99.90;;;14.18;100.00;100165.97;5093232;28;20401;-66
2022/12/31 07:24:29;;;;;;;4.45;3.45;;;14.00;99.90;;;14.24;100.00;100151.63;5093678;28;20067;-66
2022/12/31 07:27:18;;;;;;;3.80;3.60;;;14.00;99.90;;;14.28;100.00;100153.31;5093072;28;20047;-68
2022/12/31 07:30:02;;;;;;;8.18;4.38;;;14.00;99.90;;;14.30;100.00;100172.75;5093178;28;20052;-66
2022/12/31 07:33:04;;;;;;;4.60;3.55;;;14.10;99.90;;;14.31;100.00;100147.88;5075305;28;20490;-66
2022/12/31 07:35:46;;;;;;;5.55;3.97;;;14.10;99.90;;;14.26;100.00;100168.41;5091688;28;20113;-68
2022/12/31 07:38:24;;;;;;;6.00;3.72;;;14.00;99.90;;;14.26;100.00;100150.66;5093311;28;20047;-67
2022/12/31 07:41:05;;;;;;;7.10;4.15;;;14.00;99.90;;;14.19;100.00;100143.78;5075246;28;20440;-68
2022/12/31 07:43:53;;;;;;;4.45;3.40;;;14.00;99.90;;;14.20;100.00;100148.19;5093030;28;20086;-67
2022/12/31 07:46:33;;;;;;;5.88;3.42;;;14.00;99.90;;;14.08;100.00;100123.75;5093500;28;20093;-72
2022/12/31 07:49:04;;;;;;;9.13;3.78;;;14.00;99.90;;;14.15;100.00;100165.22;5093273;28;20040;-70
2022/12/31 07:51:34;;;;;;;5.80;3.60;;;14.00;99.90;;;14.12;100.00;100149.31;5092911;28;20044;-70
2022/12/31 07:54:02;;;;;;;5.78;3.60;;;13.90;99.90;;;14.09;100.00;100154.75;5093139;28;20410;-71
2022/12/31 07:56:39;;;;;;;8.65;3.97;;;13.90;99.90;;;13.99;100.00;100132.88;5092900;28;20501;-70
2022/12/31 07:59:25;;;;;;;10.18;4.18;;;13.90;99.90;;;14.11;100.00;100171.53;5092723;28;20043;-70
2022/12/31 08:02:03;;;;;;;13.35;4.25;;;13.90;99.90;;;14.15;100.00;100167.88;5075060;28;20052;-68
2022/12/31 08:04:45;;;;;;;8.90;4.15;;;13.90;99.90;;;14.14;100.00;100182.06;5092998;28;20036;-68
2022/12/31 08:07:22;;;;;;;10.27;4.18;;;13.90;99.90;;;14.10;100.00;100178.63;5091645;28;20143;-73
2022/12/31 08:10:03;;;;;;;12.07;4.32;;;13.90;99.90;;;14.07;100.00;100185.84;5093212;28;20098;-70
2022/12/31 08:12:36;;;;;;;16.67;4.22;;;13.90;99.90;;;14.14;100.00;100204.22;5093372;28;20036;-72
2022/12/31 08:15:14;;;;;;;10.23;4.40;;;13.90;99.90;;;14.01;100.00;100152.31;5095601;28;20551;-72
2022/12/31 08:17:43;;;;;;;9.63;4.63;;;13.90;99.90;;;14.06;100.00;100181.41;5096849;28;20704;-70
2022/12/31 08:20:14;;;;;;;13.30;4.43;;;13.90;99.90;;;14.19;100.00;100204.94;5096454;28;20047;-74
2022/12/31 08:23:10;;;;;;;11.73;4.53;;;14.00;99.90;;;14.07;100.00;100192.00;5096773;28;20044;-70
2022/12/31 08:25:53;;;;;;;11.35;3.90;;;14.00;99.90;;;14.25;100.00;100217.19;5096461;28;20059;-69
2022/12/31 08:28:34;;;;;;;9.82;4.40;;;14.10;99.90;;;14.43;100.00;100230.88;5096327;28;20084;-69
2022/12/31 08:31:09;;;;;;;11.90;3.90;;;14.20;99.90;;;14.48;100.00;100238.69;5096365;28;20036;-70
2022/12/31 08:33:48;;;;;;;10.18;4.25;;;14.20;99.90;;;14.51;100.00;100248.38;5078381;28;20059;-69
2022/12/31 08:36:25;;;;;;;12.90;5.18;;;14.30;99.90;;;14.57;100.00;100246.41;5096629;28;20072;-70
2022/12/31 08:39:02;;;;;;;11.57;4.93;;;14.30;99.90;;;14.50;100.00;100241.31;5096039;28;20093;-70
2022/12/31 08:41:41;;;;;;;11.77;4.57;;;14.30;99.90;;;14.50;100.00;100251.97;5096115;28;20071;-69
2022/12/31 08:44:20;;;;;;;20.17;5.63;;;14.30;99.90;;;14.49;100.00;100264.41;5096404;28;20044;-69
2022/12/31 08:47:00;;;;;;;14.13;4.78;;;14.30;99.90;;;14.50;100.00;100270.59;5095067;28;20537;-70
2022/12/31 08:49:32;;;;;;;21.98;5.50;;;14.30;99.90;;;14.47;100.00;100250.25;5096046;28;20074;-69
2022/12/31 08:52:02;;;;;;;12.90;4.75;;;14.30;99.90;;;14.53;100.00;100297.09;5077989;28;20048;-68
2022/12/31 08:54:32;;;;;;;14.07;5.18;;;14.30;99.90;;;14.58;100.00;100272.09;5095870;28;20131;-69
2022/12/31 08:57:10;;;;;;;18.08;5.95;;;14.30;99.90;;;14.62;100.00;100272.88;5095736;28;20071;-68
2022/12/31 08:59:49;;;;;;;27.75;5.57;;;14.40;99.90;;;14.61;100.00;100276.47;5077827;28;20051;-68
2022/12/31 09:02:57;;;;;;;16.13;5.43;;;14.40;99.90;;;14.68;100.00;100278.00;5078003;28;20047;-68
2022/12/31 09:05:30;;;;;;;17.48;5.88;;;14.40;99.90;;;14.74;100.00;100286.69;5055688;28;20044;-68
2022/12/31 09:08:11;;;;;;;15.80;4.70;;;14.50;99.90;;;14.62;100.00;100295.03;5096215;28;20134;-67
2022/12/31 09:10:47;;;;;;;18.05;5.28;;;14.50;99.90;;;14.73;100.00;100292.06;5095883;28;20067;-67
2022/12/31 09:13:25;;;;;;;13.80;5.10;;;14.50;99.90;;;14.76;100.00;100289.28;5095802;28;20044;-69
2022/12/31 09:16:01;;;;;;;13.38;5.32;;;14.50;99.90;;;14.74;100.00;100276.03;5095466;28;20091;-67
2022/12/31 09:18:35;;;;;;;15.48;4.93;;;14.60;99.90;;;14.92;100.00;100295.91;5095339;28;20131;-71
2022/12/31 09:21:03;;;;;;;16.73;5.18;;;14.70;99.90;;;14.95;100.00;100290.47;5095370;28;20098;-69
2022/12/31 09:23:32;;;;;;;16.23;5.40;;;14.70;99.90;;;15.04;100.00;100300.84;5077389;28;20086;-72
2022/12/31 09:26:13;;;;;;;20.25;5.95;;;14.80;99.90;;;15.05;100.00;100297.25;5094625;28;20044;-68
2022/12/31 09:28:51;;;;;;;19.13;5.53;;;14.80;99.90;;;15.04;100.00;100312.34;5095166;28;20393;-73
2022/12/31 09:31:30;;;;;;;11.98;4.93;;;14.80;99.90;;;15.13;100.00;100304.09;5077289;28;20402;-67
2022/12/31 09:34:08;;;;;;;7.93;4.82;;;14.90;99.90;;;15.08;100.00;100316.66;5095151;28;20044;-67
2022/12/31 09:36:42;;;;;;;8.38;4.50;;;14.90;99.90;;;14.89;100.00;100280.88;5095378;28;20032;-68
2022/12/31 09:39:22;;;;;;;6.60;3.35;;;14.80;99.90;;;15.12;100.00;100307.66;5094844;28;20040;-69
2022/12/31 09:42:41;;;;;;;10.10;4.55;;;14.90;99.90;;;15.03;100.00;100285.78;5095242;28;20052;-69
2022/12/31 09:45:55;;;;;;;6.78;4.50;;;14.90;99.90;;;15.11;100.00;100303.25;5076882;28;20559;-70
2022/12/31 09:49:17;;;;;;;7.78;3.80;;;14.90;99.90;;;15.15;100.00;100333.34;5095088;28;20105;-67
2022/12/31 09:51:56;;;;;;;5.68;3.95;;;14.90;99.90;;;15.24;100.00;100360.56;5095075;28;20075;-66
2022/12/31 09:54:49;;;;;;;8.00;4.60;;;15.00;99.90;;;15.27;100.00;100344.47;5094921;28;20461;-70
2022/12/31 09:57:39;;;;;;;8.73;4.68;;;15.00;99.90;;;15.26;100.00;100324.09;5076896;28;20052;-70
2022/12/31 10:00:15;;;;;;;9.30;4.35;;;15.10;99.90;;;15.26;100.00;100340.06;5094985;28;20044;-66
2022/12/31 10:03:12;;;;;;;8.73;4.75;;;15.10;99.90;;;15.34;100.00;100331.81;5094821;28;20048;-67
2022/12/31 10:06:06;;;;;;;10.25;4.97;;;15.10;99.90;;;15.33;100.00;100330.94;5094432;28;20044;-67
2022/12/31 10:09:09;;;;;;;8.80;4.88;;;15.10;99.90;;;15.34;100.00;100327.38;5094329;28;20078;-67
2022/12/31 10:12:00;;;;;;;6.57;4.45;;;15.10;99.90;;;15.38;100.00;100338.81;5094710;28;20044;-66
2022/12/31 10:14:45;;;;;;;8.73;4.85;;;15.20;99.90;;;15.38;100.00;100328.16;5094262;28;20101;-67
2022/12/31 10:17:30;;;;;;;7.05;4.90;;;15.20;99.90;;;15.49;100.00;100357.13;5094523;28;20101;-67
2022/12/31 10:20:30;;;;;;;10.65;5.13;;;15.20;99.90;;;15.45;100.00;100340.38;5094064;28;20435;-67
2022/12/31 10:23:35;;;;;;;6.95;4.70;;;15.20;99.90;;;15.49;100.00;100360.69;5094276;28;20051;-66
2022/12/31 10:26:23;;;;;;;9.43;5.50;;;15.30;99.90;;;15.54;100.00;100361.41;5094712;28;20036;-66
2022/12/31 10:28:58;;;;;;;8.38;5.63;;;15.30;99.90;;;15.52;100.00;100367.72;5094567;28;20040;-67
2022/12/31 10:31:40;;;;;;;11.23;5.50;;;15.20;99.90;;;15.49;100.00;100359.78;5076133;28;20143;-66
2022/12/31 10:34:16;;;;;;;7.55;5.32;;;15.30;99.90;;;15.49;100.00;100373.13;5076079;28;20055;-66
2022/12/31 10:36:55;;;;;;;9.07;5.43;;;15.20;99.90;;;15.49;100.00;100339.34;5094164;28;20397;-66
2022/12/31 10:39:41;;;;;;;8.35;5.22;;;15.20;99.90;;;15.49;100.00;100378.44;5094073;28;20050;-65
2022/12/31 10:43:08;;;;;;;7.50;4.70;;;15.20;99.90;;;15.43;100.00;100381.34;5094076;28;20075;-68
2022/12/31 10:46:56;;;;;;;7.82;4.75;;;15.20;99.90;;;15.43;100.00;100371.53;5070058;28;20465;-65